sensor_id;sensor_type;location;lat;lon;timestamp;temperature;humidity
43183;DHT22;28802;38.578;-0.066;2023-05-07T00:01:46;19.20;99.90
43183;DHT22;28802;38.578;-0.066;2023-05-07T00:04:12;19.20;99.90
43183;DHT22;28802;38.578;-0.066;2023-05-07T00:06:39;19.20;99.90
43183;DHT22;28802;38.578;-0.066;2023-05-07T00:09:06;18.90;99.90
43183;DHT22;28802;38.578;-0.066;2023-05-07T00:11:32;18.60;99.90
43183;DHT22;28802;38.578;-0.066;2023-05-07T00:13:58;18.40;99.90
43183;DHT22;28802;38.578;-0.066;2023-05-07T00:16:24;18.50;99.90
43183;DHT22;28802;38.578;-0.066;2023-05-07T00:18:50;18.50;99.90
43183;DHT22;28802;38.578;-0.066;2023-05-07T00:21:16;18.60;99.90
43183;DHT22;28802;38.578;-0.066;2023-05-07T00:23:42;18.60;99.90
43183;DHT22;28802;38.578;-0.066;2023-05-07T00:26:08;18.40;99.90
43183;DHT22;28802;38.578;-0.066;2023-05-07T00:28:33;18.30;99.90
43183;DHT22;28802;38.578;-0.066;2023-05-07T00:31:00;18.30;99.90
43183;DHT22;28802;38.578;-0.066;2023-05-07T00:33:25;18.40;99.90
43183;DHT22;28802;38.578;-0.066;2023-05-07T00:35:52;18.50;99.90
43183;DHT22;28802;38.578;-0.066;2023-05-07T00:38:20;18.60;99.90
43183;DHT22;28802;38.578;-0.066;2023-05-07T00:40:46;18.40;99.90
43183;DHT22;28802;38.578;-0.066;2023-05-07T00:43:12;18.30;99.90
43183;DHT22;28802;38.578;-0.066;2023-05-07T00:45:38;18.40;99.90
43183;DHT22;28802;38.578;-0.066;2023-05-07T00:48:04;18.50;99.90
43183;DHT22;28802;38.578;-0.066;2023-05-07T00:50:31;18.50;99.90
43183;DHT22;28802;38.578;-0.066;2023-05-07T00:52:58;18.60;99.90
43183;DHT22;28802;38.578;-0.066;2023-05-07T00:55:25;18.60;99.90
43183;DHT22;28802;38.578;-0.066;2023-05-07T00:57:51;18.50;99.90
43183;DHT22;28802;38.578;-0.066;2023-05-07T01:02:49;18.40;99.90
43183;DHT22;28802;38.578;-0.066;2023-05-07T01:05:17;18.40;99.90
43183;DHT22;28802;38.578;-0.066;2023-05-07T01:07:44;18.20;99.90
43183;DHT22;28802;38.578;-0.066;2023-05-07T01:10:12;18.10;99.90
43183;DHT22;28802;38.578;-0.066;2023-05-07T01:12:38;18.10;99.90
43183;DHT22;28802;38.578;-0.066;2023-05-07T01:15:07;18.20;99.90
43183;DHT22;28802;38.578;-0.066;2023-05-07T01:17:34;18.40;99.90
43183;DHT22;28802;38.578;-0.066;2023-05-07T01:20:01;18.50;99.90
43183;DHT22;28802;38.578;-0.066;2023-05-07T01:22:35;18.70;99.90
43183;DHT22;28802;38.578;-0.066;2023-05-07T01:25:06;18.70;99.90
43183;DHT22;28802;38.578;-0.066;2023-05-07T01:27:33;18.70;99.90
43183;DHT22;28802;38.578;-0.066;2023-05-07T01:29:59;18.80;99.90
43183;DHT22;28802;38.578;-0.066;2023-05-07T01:32:48;18.70;99.90
43183;DHT22;28802;38.578;-0.066;2023-05-07T01:35:20;18.70;99.90
43183;DHT22;28802;38.578;-0.066;2023-05-07T01:37:48;18.80;99.90
43183;DHT22;28802;38.578;-0.066;2023-05-07T01:40:15;18.80;99.90
43183;DHT22;28802;38.578;-0.066;2023-05-07T01:42:43;18.70;99.90
43183;DHT22;28802;38.578;-0.066;2023-05-07T01:45:09;18.70;99.90
43183;DHT22;28802;38.578;-0.066;2023-05-07T01:47:36;18.70;99.90
43183;DHT22;28802;38.578;-0.066;2023-05-07T01:50:06;18.60;99.90
43183;DHT22;28802;38.578;-0.066;2023-05-07T01:52:34;18.60;99.90
43183;DHT22;28802;38.578;-0.066;2023-05-07T01:55:00;18.60;99.90
43183;DHT22;28802;38.578;-0.066;2023-05-07T01:57:26;18.50;99.90
43183;DHT22;28802;38.578;-0.066;2023-05-07T01:59:52;18.40;99.90
43183;DHT22;28802;38.578;-0.066;2023-05-07T02:02:18;18.30;99.90
43183;DHT22;28802;38.578;-0.066;2023-05-07T02:04:45;18.10;99.90
43183;DHT22;28802;38.578;-0.066;2023-05-07T02:07:12;18.10;99.90
43183;DHT22;28802;38.578;-0.066;2023-05-07T02:09:38;18.20;99.90
43183;DHT22;28802;38.578;-0.066;2023-05-07T02:12:04;18.20;99.90
43183;DHT22;28802;38.578;-0.066;2023-05-07T02:14:30;18.10;99.90
43183;DHT22;28802;38.578;-0.066;2023-05-07T02:16:56;18.20;99.90
43183;DHT22;28802;38.578;-0.066;2023-05-07T02:19:22;18.30;99.90
43183;DHT22;28802;38.578;-0.066;2023-05-07T02:21:48;18.30;99.90
43183;DHT22;28802;38.578;-0.066;2023-05-07T02:24:14;18.30;99.90
43183;DHT22;28802;38.578;-0.066;2023-05-07T02:26:40;18.20;99.90
43183;DHT22;28802;38.578;-0.066;2023-05-07T02:29:07;18.10;99.90
43183;DHT22;28802;38.578;-0.066;2023-05-07T02:31:33;18.10;99.90
43183;DHT22;28802;38.578;-0.066;2023-05-07T02:34:02;18.20;99.90
43183;DHT22;28802;38.578;-0.066;2023-05-07T02:36:28;18.20;99.90
43183;DHT22;28802;38.578;-0.066;2023-05-07T02:39:00;18.20;99.90
43183;DHT22;28802;38.578;-0.066;2023-05-07T02:41:27;18.20;99.90
43183;DHT22;28802;38.578;-0.066;2023-05-07T02:43:53;17.90;99.90
43183;DHT22;28802;38.578;-0.066;2023-05-07T02:46:19;17.80;99.90
43183;DHT22;28802;38.578;-0.066;2023-05-07T02:48:50;17.80;99.90
43183;DHT22;28802;38.578;-0.066;2023-05-07T02:51:21;17.80;99.90
43183;DHT22;28802;38.578;-0.066;2023-05-07T02:53:47;18.00;99.90
43183;DHT22;28802;38.578;-0.066;2023-05-07T02:56:13;17.90;99.90
43183;DHT22;28802;38.578;-0.066;2023-05-07T02:58:39;17.80;99.90
43183;DHT22;28802;38.578;-0.066;2023-05-07T03:01:06;17.80;99.90
43183;DHT22;28802;38.578;-0.066;2023-05-07T03:03:44;17.70;99.90
43183;DHT22;28802;38.578;-0.066;2023-05-07T03:06:10;17.70;99.90
43183;DHT22;28802;38.578;-0.066;2023-05-07T03:08:36;17.70;99.90
43183;DHT22;28802;38.578;-0.066;2023-05-07T03:11:02;17.80;99.90
43183;DHT22;28802;38.578;-0.066;2023-05-07T03:13:28;18.00;99.90
43183;DHT22;28802;38.578;-0.066;2023-05-07T03:15:54;18.00;99.90
43183;DHT22;28802;38.578;-0.066;2023-05-07T03:18:20;18.00;99.90
43183;DHT22;28802;38.578;-0.066;2023-05-07T03:20:47;18.00;99.90
43183;DHT22;28802;38.578;-0.066;2023-05-07T03:23:14;17.90;99.90
43183;DHT22;28802;38.578;-0.066;2023-05-07T03:25:40;17.80;99.90
43183;DHT22;28802;38.578;-0.066;2023-05-07T03:28:06;17.80;99.90
43183;DHT22;28802;38.578;-0.066;2023-05-07T03:30:44;18.00;99.90
43183;DHT22;28802;38.578;-0.066;2023-05-07T03:33:10;18.20;99.90
43183;DHT22;28802;38.578;-0.066;2023-05-07T03:35:36;18.00;99.90
43183;DHT22;28802;38.578;-0.066;2023-05-07T03:38:02;18.00;99.90
43183;DHT22;28802;38.578;-0.066;2023-05-07T03:40:31;18.00;99.90
43183;DHT22;28802;38.578;-0.066;2023-05-07T03:42:58;18.00;99.90
43183;DHT22;28802;38.578;-0.066;2023-05-07T03:45:26;18.10;99.90
43183;DHT22;28802;38.578;-0.066;2023-05-07T03:48:03;18.10;99.90
43183;DHT22;28802;38.578;-0.066;2023-05-07T03:50:29;18.00;99.90
43183;DHT22;28802;38.578;-0.066;2023-05-07T03:52:54;18.00;99.90
43183;DHT22;28802;38.578;-0.066;2023-05-07T03:55:22;18.00;99.90
43183;DHT22;28802;38.578;-0.066;2023-05-07T03:57:53;18.10;99.90
43183;DHT22;28802;38.578;-0.066;2023-05-07T04:00:20;18.20;99.90
43183;DHT22;28802;38.578;-0.066;2023-05-07T04:02:46;18.30;99.90
43183;DHT22;28802;38.578;-0.066;2023-05-07T04:05:14;18.40;99.90
43183;DHT22;28802;38.578;-0.066;2023-05-07T04:07:42;18.40;99.90
43183;DHT22;28802;38.578;-0.066;2023-05-07T04:10:09;18.30;99.90
43183;DHT22;28802;38.578;-0.066;2023-05-07T04:12:37;18.20;99.90
43183;DHT22;28802;38.578;-0.066;2023-05-07T04:15:05;18.20;99.90
43183;DHT22;28802;38.578;-0.066;2023-05-07T04:17:32;17.90;99.90
43183;DHT22;28802;38.578;-0.066;2023-05-07T04:19:58;17.80;99.90
43183;DHT22;28802;38.578;-0.066;2023-05-07T04:22:25;17.80;99.90
43183;DHT22;28802;38.578;-0.066;2023-05-07T04:24:51;17.80;99.90
43183;DHT22;28802;38.578;-0.066;2023-05-07T04:27:17;18.00;99.90
43183;DHT22;28802;38.578;-0.066;2023-05-07T04:29:43;18.20;99.90
43183;DHT22;28802;38.578;-0.066;2023-05-07T04:32:13;18.10;99.90
43183;DHT22;28802;38.578;-0.066;2023-05-07T04:34:40;18.10;99.90
43183;DHT22;28802;38.578;-0.066;2023-05-07T04:37:06;18.30;99.90
43183;DHT22;28802;38.578;-0.066;2023-05-07T04:39:32;18.30;99.90
43183;DHT22;28802;38.578;-0.066;2023-05-07T04:42:01;18.50;99.90
43183;DHT22;28802;38.578;-0.066;2023-05-07T04:44:27;18.60;99.90
43183;DHT22;28802;38.578;-0.066;2023-05-07T04:46:54;18.40;99.90
43183;DHT22;28802;38.578;-0.066;2023-05-07T04:49:20;18.30;99.90
43183;DHT22;28802;38.578;-0.066;2023-05-07T04:51:46;18.20;99.90
43183;DHT22;28802;38.578;-0.066;2023-05-07T04:54:14;18.30;99.90
43183;DHT22;28802;38.578;-0.066;2023-05-07T04:56:40;18.30;99.90
43183;DHT22;28802;38.578;-0.066;2023-05-07T04:59:06;18.20;99.90
43183;DHT22;28802;38.578;-0.066;2023-05-07T05:01:32;18.20;99.90
43183;DHT22;28802;38.578;-0.066;2023-05-07T05:03:58;18.30;99.90
43183;DHT22;28802;38.578;-0.066;2023-05-07T05:06:25;18.40;99.90
43183;DHT22;28802;38.578;-0.066;2023-05-07T05:08:51;18.40;99.90
43183;DHT22;28802;38.578;-0.066;2023-05-07T05:11:17;18.40;99.90
43183;DHT22;28802;38.578;-0.066;2023-05-07T05:13:44;18.50;99.90
43183;DHT22;28802;38.578;-0.066;2023-05-07T05:16:17;18.40;99.90
43183;DHT22;28802;38.578;-0.066;2023-05-07T05:18:43;18.20;99.90
43183;DHT22;28802;38.578;-0.066;2023-05-07T05:21:11;18.00;99.90
43183;DHT22;28802;38.578;-0.066;2023-05-07T05:23:38;17.90;99.90
43183;DHT22;28802;38.578;-0.066;2023-05-07T05:26:05;17.90;99.90
43183;DHT22;28802;38.578;-0.066;2023-05-07T05:28:32;18.00;99.90
43183;DHT22;28802;38.578;-0.066;2023-05-07T05:30:58;18.10;99.90
43183;DHT22;28802;38.578;-0.066;2023-05-07T05:33:26;18.30;99.90
43183;DHT22;28802;38.578;-0.066;2023-05-07T05:35:54;18.40;99.90
43183;DHT22;28802;38.578;-0.066;2023-05-07T05:38:20;18.60;99.90
43183;DHT22;28802;38.578;-0.066;2023-05-07T05:40:47;18.70;99.90
43183;DHT22;28802;38.578;-0.066;2023-05-07T05:43:14;18.80;99.90
43183;DHT22;28802;38.578;-0.066;2023-05-07T05:45:40;18.70;99.90
43183;DHT22;28802;38.578;-0.066;2023-05-07T05:48:06;18.90;99.90
43183;DHT22;28802;38.578;-0.066;2023-05-07T05:50:32;19.10;99.90
43183;DHT22;28802;38.578;-0.066;2023-05-07T05:52:58;19.00;99.90
43183;DHT22;28802;38.578;-0.066;2023-05-07T05:55:26;19.20;99.90
43183;DHT22;28802;38.578;-0.066;2023-05-07T05:57:52;19.30;99.90
43183;DHT22;28802;38.578;-0.066;2023-05-07T06:00:19;19.40;99.90
43183;DHT22;28802;38.578;-0.066;2023-05-07T06:02:55;19.50;99.90
43183;DHT22;28802;38.578;-0.066;2023-05-07T06:05:23;19.60;99.90
43183;DHT22;28802;38.578;-0.066;2023-05-07T06:07:52;19.70;99.90
43183;DHT22;28802;38.578;-0.066;2023-05-07T06:10:18;19.70;99.90
43183;DHT22;28802;38.578;-0.066;2023-05-07T06:12:44;19.80;99.90
43183;DHT22;28802;38.578;-0.066;2023-05-07T06:15:10;19.90;99.90
43183;DHT22;28802;38.578;-0.066;2023-05-07T06:17:36;20.40;99.90
43183;DHT22;28802;38.578;-0.066;2023-05-07T06:20:02;21.10;99.90
43183;DHT22;28802;38.578;-0.066;2023-05-07T06:22:28;21.60;99.90
43183;DHT22;28802;38.578;-0.066;2023-05-07T06:24:55;22.10;99.90
43183;DHT22;28802;38.578;-0.066;2023-05-07T06:27:21;21.80;99.90
43183;DHT22;28802;38.578;-0.066;2023-05-07T06:29:48;21.60;99.90
43183;DHT22;28802;38.578;-0.066;2023-05-07T06:32:16;21.50;99.90
43183;DHT22;28802;38.578;-0.066;2023-05-07T06:34:44;21.50;99.90
43183;DHT22;28802;38.578;-0.066;2023-05-07T06:37:10;21.80;99.90
43183;DHT22;28802;38.578;-0.066;2023-05-07T06:39:51;22.10;99.90
43183;DHT22;28802;38.578;-0.066;2023-05-07T06:42:17;22.40;99.90
43183;DHT22;28802;38.578;-0.066;2023-05-07T06:44:46;22.40;99.90
43183;DHT22;28802;38.578;-0.066;2023-05-07T06:47:14;22.10;99.90
43183;DHT22;28802;38.578;-0.066;2023-05-07T06:49:40;21.90;99.90
43183;DHT22;28802;38.578;-0.066;2023-05-07T06:52:07;21.90;99.90
43183;DHT22;28802;38.578;-0.066;2023-05-07T06:54:33;21.80;99.90
43183;DHT22;28802;38.578;-0.066;2023-05-07T06:56:59;21.80;99.90
43183;DHT22;28802;38.578;-0.066;2023-05-07T06:59:27;21.80;99.90
43183;DHT22;28802;38.578;-0.066;2023-05-07T07:01:53;21.80;99.90
43183;DHT22;28802;38.578;-0.066;2023-05-07T07:04:19;21.70;99.90
43183;DHT22;28802;38.578;-0.066;2023-05-07T07:06:54;21.60;99.90
43183;DHT22;28802;38.578;-0.066;2023-05-07T07:09:20;21.50;99.90
43183;DHT22;28802;38.578;-0.066;2023-05-07T07:11:46;21.50;99.90
43183;DHT22;28802;38.578;-0.066;2023-05-07T07:14:12;21.30;99.90
43183;DHT22;28802;38.578;-0.066;2023-05-07T07:16:44;21.40;99.90
43183;DHT22;28802;38.578;-0.066;2023-05-07T07:19:13;21.50;99.90
43183;DHT22;28802;38.578;-0.066;2023-05-07T07:21:42;21.60;99.90
43183;DHT22;28802;38.578;-0.066;2023-05-07T07:24:08;21.60;99.90
43183;DHT22;28802;38.578;-0.066;2023-05-07T07:26:34;21.40;99.90
43183;DHT22;28802;38.578;-0.066;2023-05-07T07:29:00;21.60;99.90
43183;DHT22;28802;38.578;-0.066;2023-05-07T07:31:26;21.70;99.90
43183;DHT22;28802;38.578;-0.066;2023-05-07T07:33:52;21.60;99.90
43183;DHT22;28802;38.578;-0.066;2023-05-07T07:36:18;21.60;99.90
43183;DHT22;28802;38.578;-0.066;2023-05-07T07:38:44;21.50;99.90
43183;DHT22;28802;38.578;-0.066;2023-05-07T07:41:10;21.60;99.90
43183;DHT22;28802;38.578;-0.066;2023-05-07T07:43:36;21.70;99.90
43183;DHT22;28802;38.578;-0.066;2023-05-07T07:46:03;21.70;99.90
43183;DHT22;28802;38.578;-0.066;2023-05-07T07:48:30;21.50;99.90
43183;DHT22;28802;38.578;-0.066;2023-05-07T07:50:57;21.40;99.90
43183;DHT22;28802;38.578;-0.066;2023-05-07T07:53:23;21.40;99.90
43183;DHT22;28802;38.578;-0.066;2023-05-07T07:55:49;21.30;99.90
43183;DHT22;28802;38.578;-0.066;2023-05-07T07:58:18;20.60;99.90
43183;DHT22;28802;38.578;-0.066;2023-05-07T08:00:44;20.20;99.90
43183;DHT22;28802;38.578;-0.066;2023-05-07T08:03:12;19.80;99.90
43183;DHT22;28802;38.578;-0.066;2023-05-07T08:05:42;19.70;99.90
43183;DHT22;28802;38.578;-0.066;2023-05-07T08:08:08;19.60;99.90
43183;DHT22;28802;38.578;-0.066;2023-05-07T08:10:37;19.60;99.90
43183;DHT22;28802;38.578;-0.066;2023-05-07T08:13:10;19.40;99.90
43183;DHT22;28802;38.578;-0.066;2023-05-07T08:15:38;19.50;99.90
43183;DHT22;28802;38.578;-0.066;2023-05-07T08:18:04;19.50;99.90
43183;DHT22;28802;38.578;-0.066;2023-05-07T08:20:31;19.40;99.90
43183;DHT22;28802;38.578;-0.066;2023-05-07T08:22:57;19.40;99.90
43183;DHT22;28802;38.578;-0.066;2023-05-07T08:25:25;19.40;99.90
43183;DHT22;28802;38.578;-0.066;2023-05-07T08:27:52;19.50;99.90
43183;DHT22;28802;38.578;-0.066;2023-05-07T08:30:18;19.60;99.90
43183;DHT22;28802;38.578;-0.066;2023-05-07T08:32:44;19.60;99.90
43183;DHT22;28802;38.578;-0.066;2023-05-07T08:35:10;19.50;99.90
43183;DHT22;28802;38.578;-0.066;2023-05-07T08:37:37;19.60;99.90
43183;DHT22;28802;38.578;-0.066;2023-05-07T08:40:05;19.60;99.90
43183;DHT22;28802;38.578;-0.066;2023-05-07T08:42:36;19.70;99.90
43183;DHT22;28802;38.578;-0.066;2023-05-07T08:45:09;19.70;99.90
43183;DHT22;28802;38.578;-0.066;2023-05-07T08:47:44;19.80;99.90
43183;DHT22;28802;38.578;-0.066;2023-05-07T08:50:13;19.90;99.90
43183;DHT22;28802;38.578;-0.066;2023-05-07T08:52:40;20.00;99.90
43183;DHT22;28802;38.578;-0.066;2023-05-07T08:55:08;20.10;99.90
43183;DHT22;28802;38.578;-0.066;2023-05-07T08:57:34;20.10;99.90
43183;DHT22;28802;38.578;-0.066;2023-05-07T09:00:03;20.30;99.90
43183;DHT22;28802;38.578;-0.066;2023-05-07T09:02:30;20.30;99.90
43183;DHT22;28802;38.578;-0.066;2023-05-07T09:04:56;20.60;99.90
43183;DHT22;28802;38.578;-0.066;2023-05-07T09:07:26;21.00;99.90
43183;DHT22;28802;38.578;-0.066;2023-05-07T09:09:53;21.50;99.90
43183;DHT22;28802;38.578;-0.066;2023-05-07T09:12:21;21.90;99.90
43183;DHT22;28802;38.578;-0.066;2023-05-07T09:14:49;22.10;99.90
43183;DHT22;28802;38.578;-0.066;2023-05-07T09:17:16;22.20;99.90
43183;DHT22;28802;38.578;-0.066;2023-05-07T09:19:44;22.30;99.90
43183;DHT22;28802;38.578;-0.066;2023-05-07T09:22:12;22.40;99.90
43183;DHT22;28802;38.578;-0.066;2023-05-07T09:24:59;22.50;99.90
43183;DHT22;28802;38.578;-0.066;2023-05-07T09:27:26;22.90;99.90
43183;DHT22;28802;38.578;-0.066;2023-05-07T09:29:54;23.00;99.90
43183;DHT22;28802;38.578;-0.066;2023-05-07T09:32:23;22.80;99.90
43183;DHT22;28802;38.578;-0.066;2023-05-07T09:34:50;22.40;99.90
43183;DHT22;28802;38.578;-0.066;2023-05-07T09:37:19;22.60;99.90
43183;DHT22;28802;38.578;-0.066;2023-05-07T09:39:49;23.90;99.90
43183;DHT22;28802;38.578;-0.066;2023-05-07T09:42:25;25.40;99.90
43183;DHT22;28802;38.578;-0.066;2023-05-07T09:44:59;26.30;99.90
43183;DHT22;28802;38.578;-0.066;2023-05-07T09:47:32;27.00;99.90
43183;DHT22;28802;38.578;-0.066;2023-05-07T09:50:03;26.90;99.90
43183;DHT22;28802;38.578;-0.066;2023-05-07T09:52:30;26.70;99.90
43183;DHT22;28802;38.578;-0.066;2023-05-07T09:55:02;26.30;99.90
43183;DHT22;28802;38.578;-0.066;2023-05-07T09:57:30;25.80;99.90
43183;DHT22;28802;38.578;-0.066;2023-05-07T10:00:02;24.90;99.90
43183;DHT22;28802;38.578;-0.066;2023-05-07T10:02:47;23.50;99.90
43183;DHT22;28802;38.578;-0.066;2023-05-07T10:05:17;22.50;99.90
43183;DHT22;28802;38.578;-0.066;2023-05-07T10:07:44;22.50;99.90
43183;DHT22;28802;38.578;-0.066;2023-05-07T10:10:10;22.50;99.90
43183;DHT22;28802;38.578;-0.066;2023-05-07T10:12:41;22.40;99.90
43183;DHT22;28802;38.578;-0.066;2023-05-07T10:15:13;22.10;99.90
43183;DHT22;28802;38.578;-0.066;2023-05-07T10:17:42;22.40;99.90
43183;DHT22;28802;38.578;-0.066;2023-05-07T10:20:10;22.60;99.90
43183;DHT22;28802;38.578;-0.066;2023-05-07T10:22:43;22.80;99.90
43183;DHT22;28802;38.578;-0.066;2023-05-07T10:25:22;23.10;99.90
43183;DHT22;28802;38.578;-0.066;2023-05-07T10:27:50;22.80;99.90
43183;DHT22;28802;38.578;-0.066;2023-05-07T10:33:08;23.70;99.90
43183;DHT22;28802;38.578;-0.066;2023-05-07T10:35:39;24.30;99.90
43183;DHT22;28802;38.578;-0.066;2023-05-07T10:38:09;24.60;99.90
43183;DHT22;28802;38.578;-0.066;2023-05-07T10:40:38;24.50;99.90
43183;DHT22;28802;38.578;-0.066;2023-05-07T10:43:06;24.20;99.90
43183;DHT22;28802;38.578;-0.066;2023-05-07T10:45:39;24.60;99.90
43183;DHT22;28802;38.578;-0.066;2023-05-07T10:48:09;25.70;99.90
43183;DHT22;28802;38.578;-0.066;2023-05-07T10:50:42;25.80;99.90
43183;DHT22;28802;38.578;-0.066;2023-05-07T11:02:04;28.90;99.90
43183;DHT22;28802;38.578;-0.066;2023-05-07T11:04:43;28.60;99.90
43183;DHT22;28802;38.578;-0.066;2023-05-07T11:15:09;26.10;99.90
43183;DHT22;28802;38.578;-0.066;2023-05-07T11:17:54;25.50;99.90
43183;DHT22;28802;38.578;-0.066;2023-05-07T11:26:11;27.40;99.90
43183;DHT22;28802;38.578;-0.066;2023-05-07T11:28:43;27.50;99.90
43183;DHT22;28802;38.578;-0.066;2023-05-07T11:31:10;26.80;99.90
43183;DHT22;28802;38.578;-0.066;2023-05-07T11:33:38;24.70;99.90
43183;DHT22;28802;38.578;-0.066;2023-05-07T11:36:08;24.50;99.90
43183;DHT22;28802;38.578;-0.066;2023-05-07T11:38:40;24.60;99.90
43183;DHT22;28802;38.578;-0.066;2023-05-07T11:41:06;25.30;99.90
43183;DHT22;28802;38.578;-0.066;2023-05-07T11:43:33;25.50;99.90
43183;DHT22;28802;38.578;-0.066;2023-05-07T11:46:10;25.40;99.90
43183;DHT22;28802;38.578;-0.066;2023-05-07T11:48:36;25.60;99.90
43183;DHT22;28802;38.578;-0.066;2023-05-07T11:51:06;24.90;99.90
43183;DHT22;28802;38.578;-0.066;2023-05-07T11:53:39;24.40;99.90
43183;DHT22;28802;38.578;-0.066;2023-05-07T11:56:09;24.30;99.90
43183;DHT22;28802;38.578;-0.066;2023-05-07T11:58:36;24.50;99.90
43183;DHT22;28802;38.578;-0.066;2023-05-07T12:01:02;25.60;99.90
43183;DHT22;28802;38.578;-0.066;2023-05-07T12:03:28;26.80;99.90
43183;DHT22;28802;38.578;-0.066;2023-05-07T12:05:54;26.70;99.90
43183;DHT22;28802;38.578;-0.066;2023-05-07T12:08:26;25.40;99.90
43183;DHT22;28802;38.578;-0.066;2023-05-07T12:10:55;25.90;99.90
43183;DHT22;28802;38.578;-0.066;2023-05-07T12:13:22;25.70;99.90
43183;DHT22;28802;38.578;-0.066;2023-05-07T12:15:55;25.80;99.90
43183;DHT22;28802;38.578;-0.066;2023-05-07T12:18:23;25.20;99.90
43183;DHT22;28802;38.578;-0.066;2023-05-07T12:20:50;24.70;99.90
43183;DHT22;28802;38.578;-0.066;2023-05-07T12:23:22;24.40;99.90
43183;DHT22;28802;38.578;-0.066;2023-05-07T12:25:48;24.60;99.90
43183;DHT22;28802;38.578;-0.066;2023-05-07T12:28:18;24.90;99.90
43183;DHT22;28802;38.578;-0.066;2023-05-07T12:30:46;25.10;99.90
43183;DHT22;28802;38.578;-0.066;2023-05-07T12:33:19;25.20;99.90
43183;DHT22;28802;38.578;-0.066;2023-05-07T12:35:47;25.60;99.90
43183;DHT22;28802;38.578;-0.066;2023-05-07T12:38:15;24.70;99.90
43183;DHT22;28802;38.578;-0.066;2023-05-07T12:40:46;24.70;99.90
43183;DHT22;28802;38.578;-0.066;2023-05-07T12:43:26;24.80;99.90
43183;DHT22;28802;38.578;-0.066;2023-05-07T12:46:04;24.50;99.90
43183;DHT22;28802;38.578;-0.066;2023-05-07T12:48:31;24.40;99.90
43183;DHT22;28802;38.578;-0.066;2023-05-07T12:51:00;24.40;99.90
43183;DHT22;28802;38.578;-0.066;2023-05-07T12:53:30;24.00;99.90
43183;DHT22;28802;38.578;-0.066;2023-05-07T12:56:02;23.90;99.90
43183;DHT22;28802;38.578;-0.066;2023-05-07T12:58:34;24.00;99.90
43183;DHT22;28802;38.578;-0.066;2023-05-07T13:01:05;24.00;99.90
43183;DHT22;28802;38.578;-0.066;2023-05-07T13:03:35;23.70;99.90
43183;DHT22;28802;38.578;-0.066;2023-05-07T13:06:09;23.60;99.90
43183;DHT22;28802;38.578;-0.066;2023-05-07T13:08:40;23.50;99.90
43183;DHT22;28802;38.578;-0.066;2023-05-07T13:11:09;23.50;99.90
43183;DHT22;28802;38.578;-0.066;2023-05-07T13:13:37;23.50;99.90
43183;DHT22;28802;38.578;-0.066;2023-05-07T13:16:05;23.40;99.90
43183;DHT22;28802;38.578;-0.066;2023-05-07T13:18:34;23.40;99.90
43183;DHT22;28802;38.578;-0.066;2023-05-07T13:21:03;23.50;99.90
43183;DHT22;28802;38.578;-0.066;2023-05-07T13:23:30;23.50;99.90
43183;DHT22;28802;38.578;-0.066;2023-05-07T13:25:56;23.40;99.90
43183;DHT22;28802;38.578;-0.066;2023-05-07T13:28:23;23.30;99.90
43183;DHT22;28802;38.578;-0.066;2023-05-07T13:30:49;23.30;99.90
43183;DHT22;28802;38.578;-0.066;2023-05-07T13:33:17;23.60;99.90
43183;DHT22;28802;38.578;-0.066;2023-05-07T13:35:44;23.70;99.90
43183;DHT22;28802;38.578;-0.066;2023-05-07T13:38:13;23.50;99.90
43183;DHT22;28802;38.578;-0.066;2023-05-07T13:40:41;23.20;99.90
43183;DHT22;28802;38.578;-0.066;2023-05-07T13:43:07;23.20;99.90
43183;DHT22;28802;38.578;-0.066;2023-05-07T13:45:33;23.30;99.90
43183;DHT22;28802;38.578;-0.066;2023-05-07T13:47:59;23.20;99.90
43183;DHT22;28802;38.578;-0.066;2023-05-07T13:50:26;22.90;99.90
43183;DHT22;28802;38.578;-0.066;2023-05-07T13:52:55;22.90;99.90
43183;DHT22;28802;38.578;-0.066;2023-05-07T13:55:23;22.80;99.90
43183;DHT22;28802;38.578;-0.066;2023-05-07T13:57:58;22.80;99.90
43183;DHT22;28802;38.578;-0.066;2023-05-07T14:00:25;22.80;99.90
43183;DHT22;28802;38.578;-0.066;2023-05-07T14:02:52;23.10;99.90
43183;DHT22;28802;38.578;-0.066;2023-05-07T14:05:20;23.00;99.90
43183;DHT22;28802;38.578;-0.066;2023-05-07T14:07:52;22.80;99.90
43183;DHT22;28802;38.578;-0.066;2023-05-07T14:10:19;22.90;99.90
43183;DHT22;28802;38.578;-0.066;2023-05-07T14:12:45;22.90;99.90
43183;DHT22;28802;38.578;-0.066;2023-05-07T14:15:13;22.80;99.90
43183;DHT22;28802;38.578;-0.066;2023-05-07T14:17:39;23.10;99.90
43183;DHT22;28802;38.578;-0.066;2023-05-07T14:20:06;23.10;99.90
43183;DHT22;28802;38.578;-0.066;2023-05-07T14:22:32;23.20;99.90
43183;DHT22;28802;38.578;-0.066;2023-05-07T14:24:58;23.30;99.90
43183;DHT22;28802;38.578;-0.066;2023-05-07T14:27:24;23.40;99.90
43183;DHT22;28802;38.578;-0.066;2023-05-07T14:29:52;23.40;99.90
43183;DHT22;28802;38.578;-0.066;2023-05-07T14:32:18;23.60;99.90
43183;DHT22;28802;38.578;-0.066;2023-05-07T14:34:44;23.30;99.90
43183;DHT22;28802;38.578;-0.066;2023-05-07T14:37:11;23.00;99.90
43183;DHT22;28802;38.578;-0.066;2023-05-07T14:39:37;23.30;99.90
43183;DHT22;28802;38.578;-0.066;2023-05-07T14:42:03;23.30;99.90
43183;DHT22;28802;38.578;-0.066;2023-05-07T14:44:29;23.60;99.90
43183;DHT22;28802;38.578;-0.066;2023-05-07T14:46:55;23.20;99.90
43183;DHT22;28802;38.578;-0.066;2023-05-07T14:49:21;23.00;99.90
43183;DHT22;28802;38.578;-0.066;2023-05-07T14:51:48;23.10;99.90
43183;DHT22;28802;38.578;-0.066;2023-05-07T14:54:27;23.10;99.90
43183;DHT22;28802;38.578;-0.066;2023-05-07T14:56:53;22.90;99.90
43183;DHT22;28802;38.578;-0.066;2023-05-07T14:59:19;22.90;99.90
43183;DHT22;28802;38.578;-0.066;2023-05-07T15:01:47;23.00;99.90
43183;DHT22;28802;38.578;-0.066;2023-05-07T15:04:14;22.90;99.90
43183;DHT22;28802;38.578;-0.066;2023-05-07T15:06:40;22.70;99.90
43183;DHT22;28802;38.578;-0.066;2023-05-07T15:09:06;22.70;99.90
43183;DHT22;28802;38.578;-0.066;2023-05-07T15:11:32;22.60;99.90
43183;DHT22;28802;38.578;-0.066;2023-05-07T15:13:58;22.40;99.90
43183;DHT22;28802;38.578;-0.066;2023-05-07T15:16:24;22.30;99.90
43183;DHT22;28802;38.578;-0.066;2023-05-07T15:18:50;22.30;99.90
43183;DHT22;28802;38.578;-0.066;2023-05-07T15:21:16;22.50;99.90
43183;DHT22;28802;38.578;-0.066;2023-05-07T15:23:43;22.50;99.90
43183;DHT22;28802;38.578;-0.066;2023-05-07T15:26:12;22.50;99.90
43183;DHT22;28802;38.578;-0.066;2023-05-07T15:28:41;22.40;99.90
43183;DHT22;28802;38.578;-0.066;2023-05-07T15:31:10;22.20;99.90
43183;DHT22;28802;38.578;-0.066;2023-05-07T15:33:39;22.10;99.90
43183;DHT22;28802;38.578;-0.066;2023-05-07T15:36:06;22.10;99.90
43183;DHT22;28802;38.578;-0.066;2023-05-07T15:38:35;21.90;99.90
43183;DHT22;28802;38.578;-0.066;2023-05-07T15:41:00;22.00;99.90
43183;DHT22;28802;38.578;-0.066;2023-05-07T15:43:26;22.20;99.90
43183;DHT22;28802;38.578;-0.066;2023-05-07T15:45:52;22.20;99.90
43183;DHT22;28802;38.578;-0.066;2023-05-07T15:48:22;22.10;99.90